Time;durP1;ratioP1;P1;durP2;ratioP2;P2;SDS_P1;SDS_P2;PMS_P1;PMS_P2;Temp;Humidity;BMP_temperature;BMP_pressure;BME280_temperature;BME280_humidity;BME280_pressure;Samples;Min_cycle;Max_cycle;Signal;HPM_P1;HPM_P2
2023/01/22 00:01:32;;;;;;;12.98;11.25;;;0.10;97.20;;;;;;5048714;28;20869;-90
2023/01/22 00:03:57;;;;;;;14.07;11.90;;;0.10;97.10;;;;;;5050666;28;20414;-89
2023/01/22 00:06:23;;;;;;;12.13;10.07;;;0.10;97.20;;;;;;5066514;28;20539;-89
2023/01/22 00:08:50;;;;;;;13.37;9.90;;;0.10;97.20;;;;;;5050451;28;20408;-89
2023/01/22 00:11:17;;;;;;;13.68;10.75;;;0.00;96.80;;;;;;5049308;28;20832;-89
2023/01/22 00:13:42;;;;;;;12.85;10.73;;;0.00;96.90;;;;;;5049916;28;20408;-90
2023/01/22 00:16:16;;;;;;;12.30;10.57;;;0.00;97.10;;;;;;5049559;28;20988;-89
2023/01/22 00:18:42;;;;;;;12.85;10.07;;;0.00;97.10;;;;;;5066003;28;20431;-91
2023/01/22 00:21:08;;;;;;;12.27;10.30;;;0.00;97.00;;;;;;5066961;28;20412;-90
2023/01/22 00:23:34;;;;;;;12.52;10.50;;;0.00;97.00;;;;;;5048684;28;20418;-89
2023/01/22 00:26:01;;;;;;;11.90;10.63;;;0.00;97.00;;;;;;5050298;28;20403;-90
2023/01/22 00:28:27;;;;;;;13.13;10.88;;;-0.10;97.10;;;;;;5065681;28;20404;-90
2023/01/22 00:31:01;;;;;;;11.90;9.95;;;0.00;97.30;;;;;;5049862;28;20411;-89
2023/01/22 00:33:27;;;;;;;11.48;10.15;;;0.00;97.40;;;;;;5066306;28;20411;-89
2023/01/22 00:35:53;;;;;;;11.77;10.50;;;-0.10;97.30;;;;;;5065800;28;20399;-90
2023/01/22 00:38:18;;;;;;;14.02;11.68;;;-0.10;97.20;;;;;;5066097;28;20407;-89
2023/01/22 00:40:44;;;;;;;14.07;11.70;;;-0.10;97.30;;;;;;5048847;28;20463;-90
2023/01/22 00:43:09;;;;;;;16.67;12.50;;;-0.10;97.40;;;;;;5049501;28;20697;-89
2023/01/22 00:45:35;;;;;;;14.50;11.57;;;-0.10;97.50;;;;;;5064387;28;20448;-89
2023/01/22 00:48:01;;;;;;;12.45;10.98;;;-0.10;97.60;;;;;;5049684;28;20788;-88
2023/01/22 00:50:27;;;;;;;13.38;10.90;;;0.00;97.40;;;;;;5048041;28;20939;-89
2023/01/22 00:52:52;;;;;;;13.23;11.38;;;0.00;97.40;;;;;;5066378;28;20419;-89
2023/01/22 00:55:19;;;;;;;13.27;10.80;;;0.10;97.40;;;;;;5049394;28;20400;-89
2023/01/22 00:57:45;;;;;;;15.25;11.88;;;0.10;97.30;;;;;;5065307;28;20766;-89
2023/01/22 01:00:16;;;;;;;12.93;10.87;;;0.10;97.30;;;;;;5049152;28;20503;-88
2023/01/22 01:05:27;;;;;;;13.52;11.05;;;0.20;97.20;;;;;;5065725;28;20403;-89
2023/01/22 01:07:53;;;;;;;12.35;9.90;;;0.20;97.20;;;;;;5064811;28;20759;-89
2023/01/22 01:10:18;;;;;;;12.60;10.40;;;0.20;97.10;;;;;;5048789;28;20415;-89
2023/01/22 01:12:44;;;;;;;12.20;9.85;;;0.30;97.20;;;;;;5048625;28;20403;-88
2023/01/22 01:15:10;;;;;;;14.87;10.83;;;0.20;97.10;;;;;;5065387;28;20399;-89
2023/01/22 01:17:35;;;;;;;12.75;10.43;;;0.20;97.20;;;;;;5065651;28;20402;-88
2023/01/22 01:20:01;;;;;;;15.00;10.43;;;0.20;97.30;;;;;;5047850;28;20434;-88
2023/01/22 01:22:27;;;;;;;14.30;10.63;;;0.20;97.40;;;;;;5048733;28;20960;-88
2023/01/22 01:24:52;;;;;;;15.57;10.97;;;0.10;97.40;;;;;;5064210;28;20470;-89
2023/01/22 01:27:18;;;;;;;14.07;10.40;;;0.10;97.40;;;;;;5065685;28;20448;-89
2023/01/22 01:29:44;;;;;;;13.30;10.23;;;0.10;97.50;;;;;;5047935;28;20407;-88
2023/01/22 01:32:09;;;;;;;13.40;10.20;;;0.00;97.30;;;;;;5048075;28;20404;-89
2023/01/22 01:34:35;;;;;;;13.95;10.07;;;0.00;97.50;;;;;;5064970;28;20460;-89
2023/01/22 01:37:00;;;;;;;14.10;10.73;;;0.00;97.60;;;;;;5064749;28;20867;-88
2023/01/22 01:39:26;;;;;;;14.33;10.80;;;0.00;97.60;;;;;;5048755;28;20407;-89
2023/01/22 01:41:51;;;;;;;14.70;11.03;;;0.20;97.70;;;;;;5047499;28;20933;-89
2023/01/22 01:44:20;;;;;;;14.05;11.07;;;-0.10;97.70;;;;;;5065543;28;20402;-88
2023/01/22 01:46:56;;;;;;;14.68;10.75;;;-0.10;97.80;;;;;;5047632;28;20410;-89
2023/01/22 01:49:37;;;;;;;14.35;10.35;;;-0.10;97.90;;;;;;5048509;28;20448;-89
2023/01/22 01:52:10;;;;;;;14.52;10.75;;;-0.10;97.60;;;;;;5047612;28;20412;-88
2023/01/22 01:54:36;;;;;;;14.35;11.05;;;-0.10;97.70;;;;;;5064168;28;20881;-89
2023/01/22 01:57:17;;;;;;;16.87;11.20;;;-0.10;97.90;;;;;;5048888;28;20443;-89
2023/01/22 01:59:45;;;;;;;15.15;11.27;;;-0.10;98.10;;;;;;5048138;28;20641;-88
2023/01/22 02:02:11;;;;;;;16.70;10.97;;;-0.10;98.20;;;;;;5048303;28;20476;-88
2023/01/22 02:04:36;;;;;;;17.47;11.80;;;-0.10;98.30;;;;;;5047870;28;20941;-88
2023/01/22 02:07:06;;;;;;;16.97;11.50;;;0.00;98.10;;;;;;5047988;28;20412;-88
2023/01/22 02:09:32;;;;;;;18.08;11.80;;;0.00;98.10;;;;;;5064849;28;20403;-88
2023/01/22 02:11:58;;;;;;;15.73;11.57;;;0.00;98.40;;;;;;5047039;28;20417;-88
2023/01/22 02:14:30;;;;;;;15.98;11.52;;;0.10;98.50;;;;;;5048041;28;20506;-88
2023/01/22 02:17:13;;;;;;;18.38;12.35;;;0.30;98.30;;;;;;5045730;28;20467;-88
2023/01/22 02:19:40;;;;;;;16.20;11.55;;;0.20;98.50;;;;;;5050980;28;20415;-88
2023/01/22 02:22:31;;;;;;;18.35;12.40;;;0.20;98.20;;;;;;5051352;28;20427;-88
2023/01/22 02:24:57;;;;;;;17.77;12.20;;;0.20;98.50;;;;;;5049886;28;20490;-88
2023/01/22 02:27:23;;;;;;;17.38;12.10;;;0.30;98.60;;;;;;5051820;28;20400;-88
2023/01/22 02:29:48;;;;;;;17.08;12.02;;;0.30;98.40;;;;;;5050796;28;20762;-88
2023/01/22 02:32:15;;;;;;;18.95;11.73;;;0.30;98.60;;;;;;5068420;28;20408;-89
2023/01/22 02:34:41;;;;;;;17.38;12.20;;;0.30;98.30;;;;;;5051562;28;20851;-87
2023/01/22 02:37:07;;;;;;;20.58;13.25;;;0.30;98.40;;;;;;5051330;28;20499;-89
2023/01/22 02:39:32;;;;;;;18.47;13.30;;;0.30;98.40;;;;;;5051460;28;20430;-89
2023/01/22 02:41:58;;;;;;;21.50;13.47;;;0.40;98.60;;;;;;5050306;28;20483;-88
2023/01/22 02:44:24;;;;;;;19.92;14.20;;;0.40;98.60;;;;;;5051460;28;20428;-89
2023/01/22 02:46:50;;;;;;;20.77;12.60;;;0.40;98.60;;;;;;5066773;28;20431;-89
2023/01/22 02:49:15;;;;;;;17.17;11.23;;;0.50;98.70;;;;;;5068988;28;20937;-89
2023/01/22 02:51:41;;;;;;;17.83;11.50;;;0.60;98.70;;;;;;5049922;28;20419;-88
2023/01/22 02:54:06;;;;;;;17.90;11.50;;;0.60;98.60;;;;;;5068034;28;20408;-88
2023/01/22 02:56:33;;;;;;;16.47;10.53;;;0.70;98.50;;;;;;5050868;28;20914;-87
2023/01/22 02:59:00;;;;;;;15.88;9.90;;;0.70;98.30;;;;;;5050518;28;20415;-89
2023/01/22 03:01:25;;;;;;;13.32;9.35;;;0.80;98.30;;;;;;5051208;28;20399;-88
2023/01/22 03:03:54;;;;;;;14.35;9.98;;;0.90;98.20;;;;;;5066938;28;20410;-88
2023/01/22 03:06:23;;;;;;;15.60;10.07;;;0.90;98.10;;;;;;5068025;28;21095;-88
2023/01/22 03:08:51;;;;;;;14.68;9.43;;;1.10;98.00;;;;;;5066696;28;20432;-88
2023/01/22 03:11:17;;;;;;;13.43;9.20;;;1.00;97.90;;;;;;5067540;28;20461;-88
2023/01/22 03:21:55;;;;;;;11.60;7.73;;;1.20;97.50;;;;;;5066577;28;20931;-88
2023/01/22 03:24:20;;;;;;;13.43;8.07;;;1.20;97.30;;;;;;5050517;28;20427;-89
2023/01/22 03:26:46;;;;;;;10.80;7.70;;;1.30;97.20;;;;;;5067277;28;20831;-87
2023/01/22 03:29:12;;;;;;;11.87;7.37;;;1.30;97.20;;;;;;5049907;28;20516;-88
2023/01/22 03:31:37;;;;;;;10.32;6.75;;;1.30;97.10;;;;;;5050587;28;20418;-88
2023/01/22 03:34:03;;;;;;;9.40;6.35;;;1.30;97.00;;;;;;5065808;28;20419;-89
2023/01/22 03:36:29;;;;;;;7.77;5.87;;;1.30;96.90;;;;;;5067392;28;20410;-88
2023/01/22 03:38:54;;;;;;;8.33;6.07;;;1.30;96.70;;;;;;5048877;28;20407;-87
2023/01/22 03:41:20;;;;;;;9.27;5.27;;;1.30;96.80;;;;;;5050732;28;20404;-88
2023/01/22 03:43:46;;;;;;;7.25;5.65;;;1.30;96.30;;;;;;5049558;28;20428;-87
2023/01/22 03:46:14;;;;;;;8.95;5.50;;;1.30;96.30;;;;;;5066828;28;20434;-88
2023/01/22 03:48:40;;;;;;;9.70;5.68;;;1.30;96.30;;;;;;5050030;28;20412;-88
2023/01/22 03:51:08;;;;;;;8.33;6.17;;;1.30;96.20;;;;;;5048938;28;20472;-88
2023/01/22 03:53:35;;;;;;;9.77;6.47;;;1.30;96.30;;;;;;5050287;28;20431;-88
2023/01/22 03:56:03;;;;;;;9.57;6.72;;;1.30;96.30;;;;;;5048921;28;20921;-88
2023/01/22 03:58:30;;;;;;;8.77;6.00;;;1.30;96.40;;;;;;5066869;28;20422;-88
2023/01/22 04:00:56;;;;;;;8.57;6.20;;;1.30;96.30;;;;;;5049115;28;20478;-87
2023/01/22 04:03:26;;;;;;;8.40;6.07;;;1.30;96.30;;;;;;5066390;28;20948;-88
2023/01/22 04:05:52;;;;;;;7.70;6.47;;;1.20;96.20;;;;;;5049521;28;20945;-86
2023/01/22 04:08:18;;;;;;;10.85;6.75;;;1.20;96.20;;;;;;5066283;28;20443;-87
2023/01/22 04:10:44;;;;;;;9.55;6.43;;;1.20;96.10;;;;;;5066641;28;20454;-88
2023/01/22 04:13:10;;;;;;;7.75;6.25;;;1.20;96.20;;;;;;5048388;28;20457;-89
2023/01/22 04:15:36;;;;;;;7.18;6.05;;;1.20;96.30;;;;;;5066852;28;20412;-89
2023/01/22 04:18:01;;;;;;;7.73;6.27;;;1.20;96.30;;;;;;5048769;28;20407;-88
2023/01/22 04:20:27;;;;;;;7.80;6.03;;;1.30;96.30;;;;;;5066481;28;20412;-89
2023/01/22 04:22:53;;;;;;;9.30;6.67;;;1.30;96.20;;;;;;5065235;28;20961;-87
2023/01/22 04:25:18;;;;;;;9.23;6.32;;;1.30;96.20;;;;;;5065447;28;20926;-88
2023/01/22 04:27:44;;;;;;;9.40;6.68;;;1.30;96.20;;;;;;5065726;28;20924;-88
2023/01/22 04:30:10;;;;;;;7.55;6.70;;;1.40;96.20;;;;;;5048332;28;20811;-88
2023/01/22 04:32:36;;;;;;;9.13;6.32;;;1.40;96.20;;;;;;5049599;28;20447;-88
2023/01/22 04:35:03;;;;;;;9.45;6.88;;;1.40;96.20;;;;;;5064362;28;20926;-90
2023/01/22 04:37:29;;;;;;;9.10;6.68;;;1.40;96.20;;;;;;5049470;28;20924;-89
2023/01/22 04:39:55;;;;;;;9.55;6.20;;;1.40;96.20;;;;;;5064116;28;20420;-88
2023/01/22 04:42:20;;;;;;;9.98;6.88;;;1.40;96.20;;;;;;5049027;28;20430;-89
2023/01/22 04:44:46;;;;;;;10.93;6.53;;;1.50;96.20;;;;;;5065194;28;20458;-87
2023/01/22 04:47:12;;;;;;;8.15;6.13;;;1.40;96.10;;;;;;5048457;28;20415;-89
2023/01/22 04:49:37;;;;;;;9.83;6.70;;;1.50;96.10;;;;;;5065401;28;20987;-89
2023/01/22 04:52:03;;;;;;;8.70;6.50;;;1.50;96.00;;;;;;5064916;28;20415;-88
2023/01/22 04:54:29;;;;;;;9.27;6.03;;;1.50;96.10;;;;;;5048674;28;20786;-86
2023/01/22 04:56:54;;;;;;;9.07;5.93;;;1.50;96.10;;;;;;5064101;28;20926;-88
2023/01/22 04:59:20;;;;;;;11.05;5.47;;;1.50;95.90;;;;;;5066217;28;20990;-88
2023/01/22 05:01:46;;;;;;;8.40;5.17;;;1.60;95.90;;;;;;5064206;28;20438;-87
2023/01/22 05:04:11;;;;;;;7.33;4.30;;;1.50;96.00;;;;;;5048516;28;20498;-87
2023/01/22 05:06:37;;;;;;;6.75;4.75;;;1.60;95.40;;;;;;5048479;28;20750;-88
2023/01/22 05:09:02;;;;;;;7.22;5.10;;;1.60;95.40;;;;;;5047763;28;20399;-88
2023/01/22 05:11:28;;;;;;;7.70;5.13;;;1.60;95.40;;;;;;5065694;28;21040;-88
2023/01/22 05:13:54;;;;;;;7.03;5.07;;;1.60;95.40;;;;;;5047569;28;20434;-88
2023/01/22 05:16:19;;;;;;;7.70;5.68;;;1.60;95.30;;;;;;5065629;28;20416;-88
2023/01/22 05:18:45;;;;;;;7.18;5.22;;;1.60;95.30;;;;;;5047361;28;20422;-88
2023/01/22 05:21:11;;;;;;;6.75;4.82;;;1.60;95.30;;;;;;5048444;28;20404;-88
2023/01/22 05:23:36;;;;;;;6.63;4.37;;;1.60;95.30;;;;;;5064478;28;20568;-90
2023/01/22 05:26:02;;;;;;;7.17;4.73;;;1.60;95.20;;;;;;5047665;28;21003;-87
2023/01/22 05:28:28;;;;;;;8.38;4.55;;;1.60;95.10;;;;;;5064987;28;20408;-87
2023/01/22 05:30:53;;;;;;;7.55;4.78;;;1.60;95.20;;;;;;5047435;28;20424;-90
2023/01/22 05:33:19;;;;;;;7.77;4.77;;;1.60;95.20;;;;;;5048283;28;20940;-88
2023/01/22 05:35:44;;;;;;;7.67;4.90;;;1.60;95.20;;;;;;5047375;28;20403;-89
2023/01/22 05:38:10;;;;;;;6.35;4.70;;;1.60;95.20;;;;;;5048241;28;20903;-88
2023/01/22 05:40:35;;;;;;;6.93;4.90;;;1.60;95.30;;;;;;5047765;28;20407;-87
2023/01/22 05:43:02;;;;;;;8.00;5.33;;;1.80;95.50;;;;;;5047644;28;20447;-87
2023/01/22 05:45:28;;;;;;;11.68;8.32;;;1.60;95.50;;;;;;5048393;28;20404;-88
2023/01/22 05:47:53;;;;;;;8.20;6.63;;;1.60;95.50;;;;;;5064024;28;20772;-87
2023/01/22 05:50:20;;;;;;;8.73;6.83;;;1.70;95.60;;;;;;5047359;28;20887;-87
2023/01/22 05:52:46;;;;;;;9.85;6.30;;;1.60;95.60;;;;;;5065040;28;20399;-89
2023/01/22 05:55:11;;;;;;;6.85;4.80;;;1.60;95.70;;;;;;5052232;28;20473;-88
2023/01/22 05:57:37;;;;;;;5.90;5.07;;;1.60;95.50;;;;;;5067273;28;20412;-87
2023/01/22 06:00:04;;;;;;;7.70;5.10;;;1.60;95.70;;;;;;5052269;28;20975;-89
2023/01/22 06:02:30;;;;;;;6.85;4.60;;;1.70;95.40;;;;;;5051311;28;20497;-88
2023/01/22 06:04:55;;;;;;;6.95;4.78;;;1.70;95.70;;;;;;5068846;28;20400;-88
2023/01/22 06:07:21;;;;;;;6.80;5.10;;;1.70;95.40;;;;;;5051787;28;20415;-88
2023/01/22 06:09:47;;;;;;;5.73;4.80;;;1.70;95.40;;;;;;5051005;28;20427;-88
2023/01/22 06:12:14;;;;;;;7.72;4.65;;;1.70;95.50;;;;;;5068792;28;20924;-88
2023/01/22 06:14:41;;;;;;;7.40;5.10;;;1.70;95.50;;;;;;5067851;28;20426;-88
2023/01/22 06:17:06;;;;;;;6.82;4.55;;;1.70;95.50;;;;;;5069233;28;20399;-89
2023/01/22 06:19:32;;;;;;;8.43;4.93;;;1.70;95.50;;;;;;5067649;28;20399;-87
2023/01/22 06:21:57;;;;;;;6.73;4.00;;;1.70;95.60;;;;;;5051516;28;20435;-87
2023/01/22 06:24:23;;;;;;;6.73;4.30;;;1.70;95.50;;;;;;5068126;28;20423;-88
2023/01/22 06:26:48;;;;;;;7.03;4.55;;;1.70;95.50;;;;;;5051115;28;20411;-87
2023/01/22 06:29:14;;;;;;;7.50;3.42;;;1.60;95.50;;;;;;5051467;28;20469;-89
2023/01/22 06:31:40;;;;;;;5.80;3.73;;;1.70;95.50;;;;;;5050731;28;20446;-88
2023/01/22 06:34:05;;;;;;;6.85;4.45;;;1.70;95.20;;;;;;5051914;28;20418;-88
2023/01/22 06:36:31;;;;;;;7.38;4.45;;;1.70;95.20;;;;;;5050451;28;20469;-88
2023/01/22 06:38:56;;;;;;;7.68;4.60;;;1.70;95.20;;;;;;5051299;28;20423;-88
2023/01/22 06:41:22;;;;;;;7.43;4.23;;;1.70;95.30;;;;;;5067195;28;20827;-87
2023/01/22 06:43:48;;;;;;;7.25;4.07;;;1.70;95.40;;;;;;5051033;28;20470;-89
2023/01/22 06:46:13;;;;;;;6.70;4.20;;;1.70;95.50;;;;;;5051072;28;20399;-88
2023/01/22 06:48:42;;;;;;;7.57;4.72;;;1.70;95.50;;;;;;5067073;28;20498;-87
2023/01/22 06:51:09;;;;;;;9.15;4.45;;;1.70;95.60;;;;;;5050978;28;20494;-89
2023/01/22 06:53:34;;;;;;;7.05;4.95;;;1.70;95.60;;;;;;5049837;28;20399;-88
2023/01/22 06:56:00;;;;;;;7.32;4.60;;;1.70;95.70;;;;;;5067979;28;20859;-87
2023/01/22 06:58:27;;;;;;;7.80;4.60;;;1.70;95.60;;;;;;5049625;28;20918;-87
2023/01/22 07:00:53;;;;;;;8.02;4.90;;;1.70;95.60;;;;;;5067350;28;20902;-87
2023/01/22 07:03:18;;;;;;;8.50;4.80;;;1.70;95.60;;;;;;5050104;28;20431;-88
2023/01/22 07:05:44;;;;;;;7.63;5.20;;;1.70;95.70;;;;;;5066548;28;20932;-88
2023/01/22 07:08:14;;;;;;;10.05;5.45;;;1.70;95.70;;;;;;5067290;28;20444;-87
2023/01/22 07:10:40;;;;;;;9.27;5.00;;;1.80;95.90;;;;;;5049485;28;20415;-88
2023/01/22 07:13:07;;;;;;;7.93;4.97;;;1.70;96.20;;;;;;5050897;28;20404;-87
2023/01/22 07:15:33;;;;;;;6.53;4.60;;;1.80;95.90;;;;;;5065979;28;20427;-86
2023/01/22 07:17:58;;;;;;;8.73;4.93;;;1.70;95.90;;;;;;5050789;28;20775;-86
2023/01/22 07:20:24;;;;;;;8.00;5.00;;;1.70;95.80;;;;;;5066487;28;20403;-86
2023/01/22 07:22:50;;;;;;;8.10;4.73;;;1.70;95.60;;;;;;5049876;28;20427;-87
2023/01/22 07:25:17;;;;;;;7.82;4.97;;;1.70;95.50;;;;;;5067166;28;20498;-87
2023/01/22 07:27:43;;;;;;;7.40;4.93;;;1.70;95.50;;;;;;5066264;28;20411;-89
2023/01/22 07:30:09;;;;;;;7.43;5.05;;;1.70;95.40;;;;;;5050696;28;20776;-88
2023/01/22 07:32:35;;;;;;;8.65;5.03;;;1.70;95.40;;;;;;5065788;28;20485;-87
2023/01/22 07:35:01;;;;;;;6.28;4.65;;;1.70;95.30;;;;;;5050494;28;20435;-87
2023/01/22 07:37:26;;;;;;;8.48;4.80;;;1.70;95.30;;;;;;5048980;28;20416;-88
2023/01/22 07:39:52;;;;;;;6.00;4.07;;;1.70;95.30;;;;;;5050138;28;20837;-89
2023/01/22 07:42:18;;;;;;;6.20;4.53;;;1.70;95.20;;;;;;5066218;28;20966;-87
2023/01/22 07:44:43;;;;;;;6.40;5.00;;;1.70;95.40;;;;;;5049605;28;20416;-87
2023/01/22 07:47:09;;;;;;;6.22;5.05;;;1.70;95.40;;;;;;5067233;28;20433;-89
2023/01/22 07:49:34;;;;;;;9.18;5.28;;;1.70;95.50;;;;;;5049055;28;20443;-89
2023/01/22 07:52:00;;;;;;;8.23;5.50;;;1.70;95.60;;;;;;5050140;28;20492;-88
2023/01/22 07:54:26;;;;;;;7.33;5.50;;;1.70;95.70;;;;;;5048556;28;20403;-88
2023/01/22 07:56:51;;;;;;;8.47;5.60;;;1.70;95.70;;;;;;5067286;28;20497;-91
2023/01/22 07:59:17;;;;;;;7.90;6.05;;;1.70;95.80;;;;;;5066186;28;20491;-89
2023/01/22 08:01:43;;;;;;;10.73;6.03;;;1.70;95.80;;;;;;5066221;28;20425;-88
2023/01/22 08:04:08;;;;;;;12.20;7.93;;;1.70;95.80;;;;;;5066342;28;20396;-88
2023/01/22 08:06:34;;;;;;;13.17;7.93;;;1.70;95.70;;;;;;5049026;28;20473;-88
2023/01/22 08:08:59;;;;;;;9.27;6.35;;;1.70;95.60;;;;;;5050013;28;20404;-89
2023/01/22 08:11:26;;;;;;;9.33;7.33;;;1.70;95.70;;;;;;5065693;28;20464;-88
2023/01/22 08:13:53;;;;;;;8.80;5.97;;;1.80;95.90;;;;;;5066599;28;20403;-88
2023/01/22 08:16:19;;;;;;;11.17;5.67;;;1.80;95.90;;;;;;5064485;28;20937;-86
2023/01/22 08:18:45;;;;;;;7.45;5.43;;;1.80;95.80;;;;;;5066327;28;20798;-90
2023/01/22 08:21:10;;;;;;;9.47;6.30;;;1.80;95.70;;;;;;5065854;28;20396;-88
2023/01/22 08:23:36;;;;;;;6.37;5.40;;;1.80;95.60;;;;;;5048623;28;20447;-89
2023/01/22 08:26:03;;;;;;;7.55;5.75;;;1.80;95.60;;;;;;5066277;28;20497;-89
2023/01/22 08:28:30;;;;;;;10.02;6.50;;;1.80;95.60;;;;;;5064711;28;20453;-88
2023/01/22 08:31:00;;;;;;;9.38;5.85;;;1.80;95.40;;;;;;5049579;28;20438;-88
2023/01/22 08:33:26;;;;;;;9.55;6.05;;;1.90;95.50;;;;;;5047931;28;20408;-88
2023/01/22 08:35:53;;;;;;;8.13;6.30;;;1.90;95.50;;;;;;5066426;28;20392;-89
2023/01/22 08:38:19;;;;;;;8.75;6.32;;;1.90;95.40;;;;;;5048093;28;20395;-88
2023/01/22 08:40:49;;;;;;;8.17;6.40;;;1.90;95.50;;;;;;5049319;28;20407;-88
2023/01/22 08:43:14;;;;;;;9.32;6.82;;;1.90;95.30;;;;;;5046027;28;20419;-88
2023/01/22 08:45:40;;;;;;;10.13;6.90;;;2.00;95.40;;;;;;5048228;28;20927;-88
2023/01/22 08:48:06;;;;;;;7.32;6.55;;;2.00;95.30;;;;;;5048928;28;20755;-88
2023/01/22 08:50:31;;;;;;;10.85;7.50;;;2.10;95.10;;;;;;5064446;28;20404;-88
2023/01/22 08:52:57;;;;;;;9.60;7.40;;;2.00;95.20;;;;;;5048830;28;20404;-88
2023/01/22 08:55:23;;;;;;;9.57;7.70;;;2.00;95.10;;;;;;5064977;28;20400;-88
2023/01/22 08:57:53;;;;;;;9.98;7.50;;;2.00;95.10;;;;;;5065730;28;20410;-88
2023/01/22 09:00:20;;;;;;;9.60;8.30;;;2.10;94.90;;;;;;5047738;28;20412;-88
2023/01/22 09:02:46;;;;;;;10.90;8.18;;;2.10;95.10;;;;;;5048257;28;20856;-88
2023/01/22 09:05:11;;;;;;;10.75;9.00;;;2.10;95.10;;;;;;5049197;28;20407;-88
2023/01/22 09:07:37;;;;;;;11.00;8.90;;;2.10;95.10;;;;;;5048301;28;20469;-88
2023/01/22 09:10:06;;;;;;;10.57;9.07;;;2.10;95.00;;;;;;5048811;28;20841;-88
2023/01/22 09:12:35;;;;;;;11.00;9.35;;;2.10;94.90;;;;;;5064407;28;20403;-88
2023/01/22 09:15:01;;;;;;;10.90;9.25;;;2.20;94.90;;;;;;5049341;28;20415;-89
2023/01/22 09:17:27;;;;;;;10.20;9.20;;;2.20;95.00;;;;;;5048329;28;20426;-87
2023/01/22 09:19:53;;;;;;;9.75;8.85;;;2.20;95.00;;;;;;5065309;28;20408;-89
2023/01/22 09:22:19;;;;;;;13.63;9.40;;;2.30;95.10;;;;;;5048072;28;20428;-91
2023/01/22 09:24:45;;;;;;;8.50;7.68;;;2.30;95.10;;;;;;5064423;28;20399;-88
2023/01/22 09:27:12;;;;;;;9.45;8.20;;;2.30;94.80;;;;;;5048895;28;20925;-88
2023/01/22 09:29:38;;;;;;;10.02;8.70;;;2.30;94.40;;;;;;5064514;28;20944;-89
2023/01/22 09:32:04;;;;;;;9.35;8.20;;;2.40;94.80;;;;;;5065701;28;20404;-89
2023/01/22 09:34:29;;;;;;;10.68;8.48;;;2.40;94.70;;;;;;5064515;28;20408;-90
2023/01/22 09:36:55;;;;;;;8.45;7.55;;;2.40;94.40;;;;;;5065301;28;20485;-89
2023/01/22 09:39:20;;;;;;;8.68;7.78;;;2.50;94.30;;;;;;5047937;28;20931;-88
2023/01/22 09:41:53;;;;;;;9.40;8.10;;;2.60;94.10;;;;;;5048594;28;20884;-88
2023/01/22 09:44:33;;;;;;;11.30;8.32;;;2.60;94.20;;;;;;5065721;28;20400;-90
2023/01/22 09:47:06;;;;;;;9.57;8.43;;;2.70;94.30;;;;;;5045700;28;20977;-89
2023/01/22 09:49:48;;;;;;;9.57;8.30;;;2.70;94.20;;;;;;5048799;28;20408;-89
2023/01/22 09:52:13;;;;;;;8.75;7.85;;;2.70;94.10;;;;;;5064600;28;20416;-88
2023/01/22 09:54:39;;;;;;;9.35;8.18;;;2.80;94.10;;;;;;5064944;28;20402;-89
2023/01/22 09:57:10;;;;;;;8.43;7.63;;;2.90;94.10;;;;;;5048096;28;20922;-89
2023/01/22 09:59:44;;;;;;;10.13;7.32;;;2.90;93.80;;;;;;5047986;28;20426;-89
2023/01/22 10:02:32;;;;;;;9.00;7.73;;;2.90;93.40;;;;;;5048397;28;20485;-89
2023/01/22 10:05:13;;;;;;;10.10;7.70;;;2.80;93.60;;;;;;5064119;28;20502;-88
2023/01/22 10:07:45;;;;;;;9.02;7.45;;;2.80;93.90;;;;;;5047928;28;20423;-89
2023/01/22 10:10:20;;;;;;;8.80;7.63;;;2.90;93.90;;;;;;5048029;28;20473;-89
2023/01/22 10:13:05;;;;;;;10.80;8.50;;;2.90;93.90;;;;;;5047254;28;20415;-88
2023/01/22 10:15:31;;;;;;;8.60;7.78;;;3.00;93.50;;;;;;5048976;28;20759;-89
2023/01/22 10:17:58;;;;;;;8.43;7.05;;;3.10;93.40;;;;;;5047652;28;20410;-88
2023/01/22 10:20:24;;;;;;;8.30;7.38;;;3.10;93.40;;;;;;5048552;28;20781;-91
2023/01/22 10:22:54;;;;;;;8.68;7.47;;;3.10;93.40;;;;;;5064700;28;20431;-89
2023/01/22 10:25:20;;;;;;;8.20;6.80;;;3.10;93.60;;;;;;5048132;28;20408;-89
2023/01/22 10:27:55;;;;;;;8.52;7.28;;;3.10;93.30;;;;;;5048409;28;20404;-90
2023/01/22 10:30:23;;;;;;;8.13;6.85;;;3.00;93.50;;;;;;5047438;28;20416;-89
2023/01/22 10:33:03;;;;;;;8.63;6.60;;;3.00;93.40;;;;;;5048572;28;20457;-89
2023/01/22 10:35:30;;;;;;;9.05;6.93;;;3.00;93.60;;;;;;5047848;28;20502;-89
2023/01/22 10:37:57;;;;;;;8.50;6.40;;;3.00;93.70;;;;;;5064528;28;20785;-89
2023/01/22 10:40:32;;;;;;;7.30;5.90;;;3.00;93.50;;;;;;5051670;28;20403;-88
2023/01/22 10:43:11;;;;;;;8.25;6.35;;;3.00;93.60;;;;;;5067868;28;20443;-89
2023/01/22 10:45:38;;;;;;;8.60;6.22;;;3.00;93.70;;;;;;5052521;28;20414;-91
2023/01/22 10:48:04;;;;;;;8.30;6.70;;;3.10;93.70;;;;;;5050890;28;20440;-91
2023/01/22 10:50:29;;;;;;;7.50;6.55;;;3.00;93.80;;;;;;5051977;28;20677;-90
2023/01/22 10:52:57;;;;;;;7.50;6.20;;;3.00;93.60;;;;;;5051434;28;20402;-89
2023/01/22 10:55:24;;;;;;;7.40;6.10;;;3.10;93.90;;;;;;5051550;28;20431;-88
2023/01/22 10:57:55;;;;;;;7.57;6.72;;;3.00;93.60;;;;;;5051785;28;21134;-89
2023/01/22 11:00:29;;;;;;;7.85;6.35;;;3.00;93.90;;;;;;5050704;28;20886;-91
2023/01/22 11:02:54;;;;;;;8.30;6.50;;;3.10;94.00;;;;;;5068808;28;20930;-90
2023/01/22 11:05:30;;;;;;;7.90;7.10;;;3.10;93.80;;;;;;5050257;28;20410;-90
2023/01/22 11:08:03;;;;;;;8.55;7.25;;;3.10;94.00;;;;;;5068681;28;20495;-90
2023/01/22 11:10:42;;;;;;;8.60;6.38;;;3.10;94.50;;;;;;5051509;28;20922;-90
2023/01/22 11:13:26;;;;;;;7.50;6.63;;;3.10;94.20;;;;;;5051026;28;20481;-90
2023/01/22 11:15:58;;;;;;;7.97;6.47;;;3.10;94.00;;;;;;5051646;28;20747;-91
2023/01/22 11:18:37;;;;;;;9.10;6.57;;;3.20;93.90;;;;;;5050464;28;20400;-90
2023/01/22 11:21:14;;;;;;;7.50;6.22;;;3.20;94.00;;;;;;5068023;28;20865;-89
2023/01/22 11:23:55;;;;;;;8.05;6.30;;;3.10;94.00;;;;;;5051330;28;20440;-89
2023/01/22 11:26:24;;;;;;;8.23;6.63;;;3.10;94.20;;;;;;5067029;28;20919;-91
2023/01/22 11:28:58;;;;;;;8.07;7.03;;;3.20;94.20;;;;;;5051917;28;20450;-90
2023/01/22 11:31:45;;;;;;;7.53;6.70;;;3.20;94.40;;;;;;5066867;28;20465;-90
2023/01/22 11:34:42;;;;;;;7.70;6.22;;;3.30;94.40;;;;;;5067687;28;20427;-90
2023/01/22 11:37:35;;;;;;;8.00;7.20;;;3.40;94.20;;;;;;5051166;28;20419;-91
2023/01/22 11:40:06;;;;;;;8.60;6.78;;;3.50;94.60;;;;;;5049658;28;20416;-91
2023/01/22 11:42:54;;;;;;;6.95;6.25;;;3.60;94.30;;;;;;5050933;28;20441;-91
2023/01/22 11:45:57;;;;;;;7.40;6.60;;;3.70;93.50;;;;;;5067776;28;20825;-90
2023/01/22 11:49:10;;;;;;;7.43;6.07;;;3.80;94.00;;;;;;5066729;28;20469;-91
2023/01/22 11:51:53;;;;;;;7.57;6.20;;;3.80;93.30;;;;;;5011469;28;20425;-90
2023/01/22 11:54:39;;;;;;;8.20;7.38;;;3.80;93.20;;;;;;5067116;28;20416;-90
2023/01/22 11:57:08;;;;;;;7.70;6.75;;;3.80;93.30;;;;;;5049776;28;20408;-91
2023/01/22 11:59:39;;;;;;;7.43;6.63;;;3.70;93.50;;;;;;5051610;28;20438;-90
2023/01/22 12:02:29;;;;;;;7.68;6.88;;;3.70;94.00;;;;;;5066991;28;20439;-90
2023/01/22 12:05:13;;;;;;;7.50;6.43;;;3.60;93.80;;;;;;5049700;28;20447;-92
2023/01/22 12:07:56;;;;;;;8.65;6.88;;;3.70;93.60;;;;;;5067306;28;20841;-90
2023/01/22 12:10:47;;;;;;;9.03;7.20;;;3.70;93.70;;;;;;5066394;28;20859;-89
2023/01/22 12:13:27;;;;;;;8.73;7.20;;;3.70;93.90;;;;;;5050132;28;20441;-92
2023/01/22 12:16:26;;;;;;;10.38;7.15;;;3.80;94.00;;;;;;5066749;28;20834;-89
2023/01/22 12:19:10;;;;;;;8.13;7.32;;;3.80;94.00;;;;;;5049078;28;20407;-91
2023/01/22 12:22:06;;;;;;;9.77;7.30;;;3.80;94.10;;;;;;5067289;28;20509;-91
2023/01/22 12:25:09;;;;;;;8.35;6.28;;;3.80;93.90;;;;;;5050816;28;20766;-91
2023/01/22 12:27:41;;;;;;;9.23;6.80;;;3.90;94.10;;;;;;5048988;28;20418;-91
2023/01/22 12:30:26;;;;;;;8.70;6.10;;;3.90;93.80;;;;;;5066926;28;20396;-89
2023/01/22 12:32:59;;;;;;;8.73;6.50;;;3.90;94.00;;;;;;5050093;28;20436;-90
2023/01/22 12:35:29;;;;;;;7.78;6.40;;;3.90;94.10;;;;;;5049944;28;20770;-91
2023/01/22 12:37:57;;;;;;;8.75;5.90;;;4.10;94.20;;;;;;5050461;28;20820;-91
2023/01/22 12:40:32;;;;;;;7.38;6.55;;;3.90;94.30;;;;;;5048623;28;20407;-88
2023/01/22 12:43:01;;;;;;;9.60;6.35;;;4.00;94.10;;;;;;5050293;28;20435;-89
2023/01/22 12:45:33;;;;;;;10.50;6.68;;;4.00;94.10;;;;;;5049424;28;20396;-89
2023/01/22 12:48:19;;;;;;;8.52;6.30;;;4.20;93.90;;;;;;5066395;28;20456;-90
2023/01/22 12:50:54;;;;;;;7.78;5.95;;;4.20;93.70;;;;;;5066355;28;20420;-90
2023/01/22 12:53:28;;;;;;;7.57;6.17;;;4.10;93.30;;;;;;5048566;28;20416;-91
2023/01/22 12:56:12;;;;;;;7.88;5.70;;;4.10;93.40;;;;;;5050101;28;20419;-91
2023/01/22 12:58:40;;;;;;;8.10;6.15;;;4.10;93.50;;;;;;5046222;28;20419;-90
2023/01/22 13:01:08;;;;;;;9.52;6.60;;;4.10;93.80;;;;;;5048646;28;20408;-90
2023/01/22 13:03:35;;;;;;;8.98;5.88;;;4.10;93.70;;;;;;5049355;28;20434;-90
2023/01/22 13:06:03;;;;;;;9.40;5.70;;;4.10;93.70;;;;;;5048226;28;20396;-90
2023/01/22 13:08:40;;;;;;;8.40;5.47;;;4.10;93.60;;;;;;5049631;28;20407;-91
2023/01/22 13:11:10;;;;;;;8.20;5.63;;;4.20;93.70;;;;;;5048925;28;20412;-90